createdAt,value
2019-05-29T00:00:30.354Z,10.54
2019-05-29T00:02:56.617Z,10.53
2019-05-29T00:05:22.836Z,10.51
2019-05-29T00:07:49.157Z,10.52
2019-05-29T00:10:15.555Z,10.52
2019-05-29T00:12:41.833Z,10.54
2019-05-29T00:15:08.528Z,10.56
2019-05-29T00:17:34.936Z,10.54
2019-05-29T00:20:01.304Z,10.50
2019-05-29T00:22:27.415Z,10.48
2019-05-29T00:24:53.710Z,10.48
2019-05-29T00:27:19.837Z,10.45
2019-05-29T00:29:46.120Z,10.45
2019-05-29T00:32:13.492Z,10.47
2019-05-29T00:34:39.842Z,10.44
2019-05-29T00:37:06.368Z,10.45
2019-05-29T00:39:32.756Z,10.45
2019-05-29T00:41:59.182Z,10.48
2019-05-29T00:44:33.903Z,10.53
2019-05-29T00:46:59.834Z,10.54
2019-05-29T00:49:29.874Z,10.53
2019-05-29T00:52:10.618Z,10.49
2019-05-29T00:54:37.172Z,10.47
2019-05-29T00:57:03.601Z,10.47
2019-05-29T00:59:29.867Z,10.47
2019-05-29T01:01:56.201Z,10.47
2019-05-29T01:04:23.468Z,10.50
2019-05-29T01:06:49.682Z,10.50
2019-05-29T01:09:16.474Z,10.48
2019-05-29T01:11:42.873Z,10.46
2019-05-29T01:14:08.973Z,10.47
2019-05-29T01:16:35.233Z,10.46
2019-05-29T01:19:20.334Z,10.48
2019-05-29T01:21:46.672Z,10.53
2019-05-29T01:24:12.979Z,10.58
2019-05-29T01:26:39.420Z,10.58
2019-05-29T01:29:05.557Z,10.58
2019-05-29T01:31:31.827Z,10.58
2019-05-29T01:33:57.945Z,10.56
2019-05-29T01:36:24.248Z,10.52
2019-05-29T01:38:50.361Z,10.43
2019-05-29T01:41:17.126Z,10.37
2019-05-29T01:43:43.577Z,10.37
2019-05-29T01:46:09.927Z,10.38
2019-05-29T01:48:36.258Z,10.38
2019-05-29T01:51:03.138Z,10.41
2019-05-29T01:53:29.470Z,10.39
2019-05-29T01:55:55.681Z,10.38
2019-05-29T01:58:22.075Z,10.37
2019-05-29T02:00:52.356Z,10.35
2019-05-29T02:03:19.786Z,10.37
2019-05-29T02:05:46.126Z,10.34
2019-05-29T02:08:12.428Z,10.34
2019-05-29T02:10:40.203Z,10.33
2019-05-29T02:13:17.250Z,10.24
2019-05-29T02:15:45.546Z,10.20
2019-05-29T02:18:15.080Z,10.19
2019-05-29T02:20:41.410Z,10.18
2019-05-29T02:23:07.665Z,10.13
2019-05-29T02:25:34.764Z,10.07
2019-05-29T02:28:01.008Z,10.09
2019-05-29T02:30:30.323Z,10.10
2019-05-29T02:32:55.388Z,10.11
2019-05-29T02:35:22.602Z,10.09
2019-05-29T02:37:49.811Z,10.10
2019-05-29T02:40:16.083Z,10.10
2019-05-29T02:42:42.484Z,10.09
2019-05-29T02:45:09.121Z,10.08
2019-05-29T02:47:35.349Z,10.03
2019-05-29T02:50:13.512Z,10.02
2019-05-29T02:52:41.228Z,9.96
2019-05-29T02:55:10.605Z,9.87
2019-05-29T02:57:36.875Z,9.82
2019-05-29T03:00:06.339Z,9.79
2019-05-29T03:02:33.674Z,9.76
2019-05-29T03:04:59.954Z,9.73
2019-05-29T03:07:26.488Z,9.71
2019-05-29T03:09:53.299Z,9.62
2019-05-29T03:12:19.500Z,9.59
2019-05-29T03:14:45.682Z,9.54
2019-05-29T03:17:11.828Z,9.50
2019-05-29T03:19:38.096Z,9.44
2019-05-29T03:22:04.280Z,9.43
2019-05-29T03:24:33.037Z,9.42
2019-05-29T03:27:00.746Z,9.40
2019-05-29T03:29:32.079Z,9.37
2019-05-29T03:35:15.396Z,9.29
2019-05-29T03:43:24.119Z,9.17
2019-05-29T03:45:57.748Z,9.15
2019-05-29T03:48:40.724Z,9.10
2019-05-29T03:54:06.202Z,9.06
2019-05-29T03:59:17.646Z,9.02
2019-05-29T04:01:44.220Z,8.99
2019-05-29T04:04:17.411Z,8.98
2019-05-29T04:06:51.056Z,8.97
2019-05-29T04:15:08.923Z,8.87
2019-05-29T04:17:38.051Z,8.85
2019-05-29T04:20:05.571Z,8.83
2019-05-29T04:22:36.974Z,8.80
2019-05-29T04:25:05.864Z,8.83
2019-05-29T04:27:34.328Z,8.85
2019-05-29T04:30:01.678Z,8.87
2019-05-29T04:32:28.264Z,8.88
2019-05-29T04:34:54.798Z,8.90
2019-05-29T04:37:21.360Z,8.88
2019-05-29T04:39:57.152Z,8.87
2019-05-29T04:42:29.132Z,8.87
2019-05-29T04:44:55.771Z,8.86
2019-05-29T04:47:22.147Z,8.86
2019-05-29T04:49:48.561Z,8.86
2019-05-29T04:52:14.895Z,8.86
2019-05-29T04:54:41.153Z,8.84
2019-05-29T04:57:07.254Z,8.85
2019-05-29T04:59:33.564Z,8.85
2019-05-29T05:02:02.198Z,8.84
2019-05-29T05:04:29.110Z,8.85
2019-05-29T05:06:57.739Z,8.84
2019-05-29T05:09:24.523Z,8.87
2019-05-29T05:11:51.292Z,8.89
2019-05-29T05:14:17.978Z,8.95
2019-05-29T05:16:44.916Z,9.00
2019-05-29T05:19:13.154Z,9.03
2019-05-29T05:21:40.279Z,9.08
2019-05-29T05:24:06.502Z,9.09
2019-05-29T05:26:32.782Z,9.11
2019-05-29T05:29:00.120Z,9.15
2019-05-29T05:31:26.429Z,9.18
2019-05-29T05:33:52.637Z,9.18
2019-05-29T05:36:18.832Z,9.20
2019-05-29T05:38:45.200Z,9.21
2019-05-29T05:41:11.479Z,9.26
2019-05-29T05:43:37.596Z,9.31
2019-05-29T05:46:04.845Z,9.35
2019-05-29T05:48:31.079Z,9.38
2019-05-29T05:50:57.464Z,9.44
2019-05-29T05:53:23.709Z,9.50
2019-05-29T05:55:49.891Z,9.50
2019-05-29T05:58:16.118Z,9.55
2019-05-29T06:00:42.300Z,9.56
2019-05-29T06:03:08.505Z,9.56
2019-05-29T06:05:36.045Z,9.58
2019-05-29T06:08:02.719Z,9.59
2019-05-29T06:10:30.239Z,9.62
2019-05-29T06:12:56.463Z,9.67
2019-05-29T06:15:22.735Z,9.72
2019-05-29T06:18:05.081Z,9.80
2019-05-29T06:20:17.146Z,9.86
2019-05-29T06:22:43.648Z,9.92
2019-05-29T06:25:10.284Z,9.96
2019-05-29T06:27:37.133Z,10.01
2019-05-29T06:30:06.588Z,10.05
2019-05-29T06:32:33.451Z,10.10
2019-05-29T06:34:59.992Z,10.07
2019-05-29T06:37:26.099Z,10.01
2019-05-29T06:39:52.316Z,10.08
2019-05-29T06:42:18.598Z,10.16
2019-05-29T06:44:47.660Z,10.26
2019-05-29T06:47:13.069Z,10.33
2019-05-29T06:49:40.120Z,10.39
2019-05-29T06:52:09.210Z,10.48
2019-05-29T06:54:35.660Z,10.58
2019-05-29T06:57:04.008Z,10.65
2019-05-29T06:59:30.267Z,10.74
2019-05-29T07:01:57.680Z,10.81
2019-05-29T07:04:23.783Z,10.85
2019-05-29T07:06:50.004Z,10.91
2019-05-29T07:09:16.210Z,10.92
2019-05-29T07:11:43.497Z,10.85
2019-05-29T07:14:09.874Z,10.92
2019-05-29T07:16:45.313Z,10.99
2019-05-29T07:21:32.543Z,11.20
2019-05-29T07:23:58.637Z,11.26
2019-05-29T07:26:24.951Z,11.34
2019-05-29T07:29:07.401Z,11.46
2019-05-29T07:31:19.383Z,11.49
2019-05-29T07:33:45.588Z,11.70
2019-05-29T07:36:12.037Z,11.91
2019-05-29T07:38:39.552Z,12.10
2019-05-29T07:41:06.160Z,12.21
2019-05-29T07:43:33.393Z,12.18
2019-05-29T07:45:59.754Z,12.23
2019-05-29T07:48:26.037Z,12.35
2019-05-29T07:51:06.281Z,12.38
2019-05-29T07:53:20.871Z,12.45
2019-05-29T07:55:47.229Z,12.56
2019-05-29T07:58:13.507Z,12.63
2019-05-29T08:01:00.958Z,12.79
2019-05-29T08:03:08.035Z,12.96
2019-05-29T08:05:34.394Z,13.07
2019-05-29T08:08:00.748Z,13.07
2019-05-29T08:10:27.302Z,12.93
2019-05-29T08:12:56.027Z,12.74
2019-05-29T08:15:22.476Z,12.56
2019-05-29T08:17:50.152Z,12.35
2019-05-29T08:20:17.254Z,12.21
2019-05-29T08:22:44.460Z,12.27
2019-05-29T08:25:11.099Z,12.46
2019-05-29T08:27:37.326Z,12.61
2019-05-29T08:30:08.641Z,12.69
2019-05-29T08:32:34.870Z,12.71
2019-05-29T08:35:01.192Z,12.71
2019-05-29T08:37:27.364Z,12.74
2019-05-29T08:39:53.637Z,12.74
2019-05-29T08:42:23.250Z,12.68
2019-05-29T08:44:48.086Z,12.71
2019-05-29T08:47:14.500Z,12.75
2019-05-29T08:49:41.688Z,12.75
2019-05-29T08:52:12.212Z,12.79
2019-05-29T08:54:36.301Z,12.85
2019-05-29T08:57:02.728Z,12.90
2019-05-29T08:59:28.925Z,12.98
2019-05-29T09:01:55.678Z,12.98
2019-05-29T09:04:22.040Z,12.89
2019-05-29T09:06:49.202Z,12.81
2019-05-29T09:09:15.510Z,12.75
2019-05-29T09:11:43.007Z,12.68
2019-05-29T09:14:09.260Z,12.55
2019-05-29T09:16:35.575Z,12.61
2019-05-29T09:19:01.787Z,12.71
2019-05-29T09:21:28.223Z,12.80
2019-05-29T09:23:58.334Z,13.02
2019-05-29T09:26:25.505Z,13.31
2019-05-29T09:28:50.829Z,13.50
2019-05-29T09:31:20.313Z,13.63
2019-05-29T09:33:51.784Z,13.62
2019-05-29T09:36:18.806Z,13.55
2019-05-29T09:38:45.524Z,13.56
2019-05-29T09:41:15.715Z,13.47
2019-05-29T09:43:57.738Z,13.28
2019-05-29T09:46:12.643Z,13.20
2019-05-29T09:48:49.232Z,13.22
2019-05-29T09:51:20.601Z,13.16
2019-05-29T09:53:36.293Z,13.17
2019-05-29T09:56:05.499Z,13.22
2019-05-29T09:58:32.184Z,13.47
2019-05-29T10:01:17.148Z,13.80
2019-05-29T10:03:26.695Z,14.13
2019-05-29T10:05:54.649Z,14.35
2019-05-29T10:08:21.628Z,14.59
2019-05-29T10:10:48.295Z,14.91
2019-05-29T10:13:15.544Z,15.13
2019-05-29T10:15:49.447Z,15.23
2019-05-29T10:18:31.284Z,15.32
2019-05-29T10:20:44.184Z,15.30
2019-05-29T10:23:10.498Z,15.31
2019-05-29T10:25:38.099Z,15.04
2019-05-29T10:28:06.103Z,14.54
2019-05-29T10:30:32.715Z,14.21
2019-05-29T10:32:59.030Z,14.09
2019-05-29T10:35:25.741Z,13.92
2019-05-29T10:37:53.169Z,13.81
2019-05-29T10:40:19.639Z,13.86
2019-05-29T10:42:47.142Z,13.91
2019-05-29T10:45:14.573Z,14.09
2019-05-29T10:47:41.098Z,14.72
2019-05-29T10:50:08.974Z,15.58
2019-05-29T10:52:35.519Z,16.36
2019-05-29T10:55:01.855Z,17.07
2019-05-29T10:57:28.499Z,17.78
2019-05-29T10:59:54.920Z,17.77
2019-05-29T11:02:23.118Z,17.12
2019-05-29T11:04:53.026Z,16.59
2019-05-29T11:07:17.415Z,16.18
2019-05-29T11:09:45.043Z,15.86
2019-05-29T11:12:12.571Z,15.67
2019-05-29T11:14:38.805Z,15.75
2019-05-29T11:17:05.425Z,16.05
2019-05-29T11:19:35.700Z,16.35
2019-05-29T11:22:24.784Z,16.85
2019-05-29T11:24:30.293Z,17.56
2019-05-29T11:26:56.737Z,17.89
2019-05-29T11:29:23.208Z,18.22
2019-05-29T11:31:53.239Z,18.08
2019-05-29T11:34:19.541Z,17.61
2019-05-29T11:36:45.800Z,16.98
2019-05-29T11:39:13.339Z,16.70
2019-05-29T11:41:39.723Z,16.57
2019-05-29T11:44:10.232Z,17.04
2019-05-29T11:46:39.625Z,17.04
2019-05-29T11:49:07.929Z,17.98
2019-05-29T11:51:36.065Z,19.31
2019-05-29T11:54:02.579Z,20.76
2019-05-29T11:56:28.747Z,22.73
2019-05-29T11:58:54.971Z,24.48
2019-05-29T12:01:23.213Z,26.03
2019-05-29T12:04:13.127Z,26.78
2019-05-29T12:06:17.817Z,27.64
2019-05-29T12:08:44.022Z,27.12
2019-05-29T12:11:10.225Z,26.83
2019-05-29T12:13:36.520Z,25.06
2019-05-29T12:16:04.018Z,23.26
2019-05-29T12:18:30.232Z,21.77
2019-05-29T12:20:58.291Z,20.64
2019-05-29T12:23:27.044Z,20.02
2019-05-29T12:26:12.840Z,19.52
2019-05-29T12:28:21.399Z,19.19
2019-05-29T12:30:47.772Z,19.10
2019-05-29T12:33:13.985Z,19.36
2019-05-29T12:35:40.276Z,22.18
2019-05-29T12:38:06.468Z,23.55
2019-05-29T12:40:33.249Z,24.68
2019-05-29T12:43:00.239Z,26.53
2019-05-29T12:45:27.125Z,26.93
2019-05-29T12:47:54.179Z,26.58
2019-05-29T12:50:21.531Z,26.00
2019-05-29T12:52:49.778Z,25.65
2019-05-29T12:55:16.362Z,24.59
2019-05-29T12:57:42.707Z,24.27
2019-05-29T13:00:13.844Z,25.08
2019-05-29T13:02:42.126Z,25.58
2019-05-29T13:05:19.308Z,26.26
2019-05-29T13:07:40.172Z,25.36
2019-05-29T13:10:06.979Z,25.87
2019-05-29T13:12:33.771Z,25.66
2019-05-29T13:15:05.394Z,27.02
2019-05-29T13:17:31.625Z,27.80
2019-05-29T13:20:07.186Z,28.76
2019-05-29T13:22:28.366Z,28.36
2019-05-29T13:24:57.846Z,28.96
2019-05-29T13:27:24.181Z,29.56
2019-05-29T13:29:50.498Z,30.72
2019-05-29T13:32:19.665Z,28.78
2019-05-29T13:34:46.241Z,26.70
2019-05-29T13:37:12.617Z,25.46
2019-05-29T13:39:38.886Z,24.69
2019-05-29T13:42:10.748Z,26.42
2019-05-29T13:44:33.673Z,27.15
2019-05-29T13:47:00.088Z,27.57
2019-05-29T13:49:26.254Z,27.37
2019-05-29T13:51:52.573Z,26.92
2019-05-29T13:54:18.762Z,25.63
2019-05-29T13:56:45.037Z,24.84
2019-05-29T13:59:11.147Z,24.14
2019-05-29T14:01:37.485Z,23.39
2019-05-29T14:04:05.202Z,22.79
2019-05-29T14:06:31.858Z,24.04
2019-05-29T14:08:58.989Z,25.39
2019-05-29T14:11:25.678Z,25.21
2019-05-29T14:13:51.898Z,24.95
2019-05-29T14:16:19.219Z,25.63
2019-05-29T14:18:45.631Z,26.09
2019-05-29T14:21:13.351Z,26.58
2019-05-29T14:23:40.100Z,26.78
2019-05-29T14:26:06.556Z,26.81
2019-05-29T14:28:32.816Z,26.76
2019-05-29T14:30:58.997Z,26.67
2019-05-29T14:33:25.297Z,26.61
2019-05-29T14:35:51.450Z,26.44
2019-05-29T14:38:17.682Z,26.25
2019-05-29T14:40:43.799Z,26.37
2019-05-29T14:43:13.684Z,26.69
2019-05-29T14:45:38.146Z,27.26
2019-05-29T14:48:06.008Z,27.77
2019-05-29T14:50:32.550Z,28.62
2019-05-29T14:52:58.895Z,29.31
2019-05-29T14:55:25.170Z,28.94
2019-05-29T14:57:51.295Z,27.23
2019-05-29T15:00:24.728Z,25.70
2019-05-29T15:02:46.194Z,24.71
2019-05-29T15:05:14.756Z,24.34
2019-05-29T15:07:41.218Z,25.43
2019-05-29T15:10:21.783Z,26.61
2019-05-29T15:12:36.972Z,27.12
2019-05-29T15:15:06.728Z,27.24
2019-05-29T15:17:33.805Z,26.77
2019-05-29T15:20:07.422Z,26.28
2019-05-29T15:22:34.576Z,25.56
2019-05-29T15:25:10.878Z,24.84
2019-05-29T15:27:29.829Z,24.18
2019-05-29T15:29:56.204Z,23.84
2019-05-29T15:32:22.735Z,23.52
2019-05-29T15:34:49.147Z,23.14
2019-05-29T15:37:18.241Z,22.87
2019-05-29T15:39:43.766Z,22.39
2019-05-29T15:42:10.912Z,22.83
2019-05-29T15:44:37.447Z,23.08
2019-05-29T15:47:03.774Z,23.38
2019-05-29T15:49:30.034Z,23.66
2019-05-29T15:51:56.303Z,23.74
2019-05-29T15:54:22.662Z,23.30
2019-05-29T15:56:49.664Z,22.63
2019-05-29T15:59:17.124Z,21.99
2019-05-29T16:01:46.185Z,21.42
2019-05-29T16:04:13.703Z,21.03
2019-05-29T16:06:40.966Z,20.75
2019-05-29T16:09:08.221Z,20.49
2019-05-29T16:11:35.262Z,20.27
2019-05-29T16:14:01.644Z,19.98
2019-05-29T16:16:28.078Z,19.74
2019-05-29T16:18:54.523Z,19.54
2019-05-29T16:21:20.848Z,19.31
2019-05-29T16:23:47.197Z,19.09
2019-05-29T16:26:31.810Z,18.77
2019-05-29T16:28:58.149Z,18.54
2019-05-29T16:31:24.511Z,18.29
2019-05-29T16:33:51.107Z,18.11
2019-05-29T16:36:18.657Z,18.00
2019-05-29T16:38:46.314Z,18.03
2019-05-29T16:41:13.757Z,18.08
2019-05-29T16:43:43.558Z,18.09
2019-05-29T16:46:14.224Z,18.07
2019-05-29T16:48:38.534Z,17.93
2019-05-29T16:51:05.077Z,17.81
2019-05-29T16:53:31.411Z,17.70
2019-05-29T16:55:57.847Z,17.55
2019-05-29T16:58:24.228Z,17.23
2019-05-29T17:00:50.412Z,17.11
2019-05-29T17:03:17.662Z,17.17
2019-05-29T17:05:43.927Z,17.22
2019-05-29T17:08:10.548Z,17.30
2019-05-29T17:10:36.926Z,17.28
2019-05-29T17:13:04.981Z,17.16
2019-05-29T17:15:31.178Z,17.04
2019-05-29T17:17:57.590Z,16.96
2019-05-29T17:20:39.291Z,16.85
2019-05-29T17:23:05.804Z,16.83
2019-05-29T17:25:33.310Z,16.68
2019-05-29T17:27:59.585Z,16.51
2019-05-29T17:30:30.954Z,16.48
2019-05-29T17:32:57.481Z,16.43
2019-05-29T17:35:23.697Z,16.39
2019-05-29T17:37:49.948Z,16.40
2019-05-29T17:40:17.022Z,16.43
2019-05-29T17:42:43.601Z,16.44
2019-05-29T17:45:11.133Z,16.46
2019-05-29T17:47:38.473Z,16.43
2019-05-29T17:50:06.558Z,16.28
2019-05-29T17:52:33.914Z,16.13
2019-05-29T17:55:00.274Z,15.96
2019-05-29T17:57:28.621Z,15.79
2019-05-29T17:59:54.951Z,15.67
2019-05-29T18:02:24.716Z,15.56
2019-05-29T18:04:53.443Z,15.52
2019-05-29T18:07:20.634Z,15.49
2019-05-29T18:09:47.099Z,15.46
2019-05-29T18:12:14.441Z,15.44
2019-05-29T18:14:40.882Z,15.33
2019-05-29T18:17:07.346Z,15.24
2019-05-29T18:19:33.870Z,15.17
2019-05-29T18:22:00.073Z,15.11
2019-05-29T18:24:27.920Z,15.04
2019-05-29T18:26:54.835Z,14.95
2019-05-29T18:29:22.220Z,14.85
2019-05-29T18:31:48.866Z,14.77
2019-05-29T18:34:15.187Z,14.69
2019-05-29T18:36:41.532Z,14.62
2019-05-29T18:39:07.934Z,14.55
2019-05-29T18:41:34.586Z,14.49
2019-05-29T18:44:00.908Z,14.41
2019-05-29T18:46:27.299Z,14.34
2019-05-29T18:48:53.483Z,14.29
2019-05-29T18:51:20.446Z,14.22
2019-05-29T18:53:46.826Z,14.14
2019-05-29T18:56:13.254Z,14.04
2019-05-29T18:58:39.542Z,13.94
2019-05-29T19:01:05.759Z,13.83
2019-05-29T19:03:32.702Z,13.70
2019-05-29T19:05:58.943Z,13.52
2019-05-29T19:08:25.737Z,13.33
2019-05-29T19:10:52.054Z,13.18
2019-05-29T19:13:18.243Z,13.02
2019-05-29T19:15:44.703Z,12.88
2019-05-29T19:18:11.122Z,12.78
2019-05-29T19:20:37.384Z,12.62
2019-05-29T19:23:03.766Z,12.55
2019-05-29T19:25:30.831Z,12.47
2019-05-29T19:27:57.394Z,12.42
2019-05-29T19:30:24.837Z,12.34
2019-05-29T19:32:51.132Z,12.22
2019-05-29T19:35:17.542Z,12.11
2019-05-29T19:37:43.656Z,11.98
2019-05-29T19:40:10.608Z,11.85
2019-05-29T19:42:37.020Z,11.77
2019-05-29T19:45:05.880Z,11.65
2019-05-29T19:47:32.782Z,11.55
2019-05-29T19:49:59.218Z,11.42
2019-05-29T19:52:25.559Z,11.31
2019-05-29T19:54:51.799Z,11.23
2019-05-29T19:57:18.215Z,11.13
2019-05-29T19:59:44.623Z,11.07
2019-05-29T20:02:11.058Z,11.01
2019-05-29T20:04:37.362Z,10.96
2019-05-29T20:07:04.799Z,10.92
2019-05-29T20:09:31.276Z,10.87
2019-05-29T20:11:57.520Z,10.83
2019-05-29T20:14:23.773Z,10.78
2019-05-29T20:16:49.888Z,10.77
2019-05-29T20:19:16.206Z,10.73
2019-05-29T20:21:42.312Z,10.73
2019-05-29T20:24:08.567Z,10.69
2019-05-29T20:26:35.190Z,10.62
2019-05-29T20:29:01.605Z,10.56
2019-05-29T20:31:27.717Z,10.53
2019-05-29T20:33:53.978Z,10.45
2019-05-29T20:36:20.145Z,10.41
2019-05-29T20:38:46.548Z,10.35
2019-05-29T20:41:13.218Z,10.30
2019-05-29T20:43:39.854Z,10.25
2019-05-29T20:46:05.933Z,10.22
2019-05-29T20:48:32.540Z,10.13
2019-05-29T20:50:58.962Z,10.05
2019-05-29T20:53:25.428Z,10.01
2019-05-29T20:55:51.590Z,10.00
2019-05-29T20:58:24.608Z,9.95
2019-05-29T21:00:46.233Z,9.85
2019-05-29T21:03:12.439Z,9.81
2019-05-29T21:05:39.142Z,9.71
2019-05-29T21:08:05.456Z,9.66
2019-05-29T21:10:33.009Z,9.61
2019-05-29T21:12:59.477Z,9.56
2019-05-29T21:15:25.947Z,9.50
2019-05-29T21:17:52.283Z,9.42
2019-05-29T21:20:18.714Z,9.29
2019-05-29T21:22:45.160Z,9.19
2019-05-29T21:25:16.373Z,9.09
2019-05-29T21:27:43.853Z,9.03
2019-05-29T21:30:11.014Z,8.98
2019-05-29T21:32:37.917Z,8.91
2019-05-29T21:35:05.389Z,8.84
2019-05-29T21:37:31.601Z,8.79
2019-05-29T21:39:57.993Z,8.73
2019-05-29T21:42:24.147Z,8.68
2019-05-29T21:44:50.464Z,8.61
2019-05-29T21:47:16.688Z,8.55
2019-05-29T21:49:43.336Z,8.51
2019-05-29T21:52:09.596Z,8.49
2019-05-29T21:54:37.222Z,8.47
2019-05-29T21:57:03.813Z,8.43
2019-05-29T21:59:30.243Z,8.40
2019-05-29T22:01:56.645Z,8.35
2019-05-29T22:04:23.366Z,8.29
2019-05-29T22:06:50.866Z,8.26
2019-05-29T22:09:18.369Z,8.22
2019-05-29T22:11:44.652Z,8.18
2019-05-29T22:14:10.930Z,8.16
2019-05-29T22:16:37.244Z,8.09
2019-05-29T22:19:04.347Z,8.00
2019-05-29T22:21:30.825Z,7.88
2019-05-29T22:23:57.190Z,7.79
2019-05-29T22:26:23.324Z,7.72
2019-05-29T22:28:49.684Z,7.66
2019-05-29T22:31:16.307Z,7.62
2019-05-29T22:33:42.585Z,7.60
2019-05-29T22:36:09.292Z,7.62
2019-05-29T22:38:35.662Z,7.62
2019-05-29T22:41:02.046Z,7.59
2019-05-29T22:43:28.446Z,7.55
2019-05-29T22:45:55.606Z,7.44
2019-05-29T22:48:21.997Z,7.36
2019-05-29T22:50:48.647Z,7.30
2019-05-29T22:53:15.028Z,7.27
2019-05-29T22:55:41.249Z,7.26
2019-05-29T22:58:07.554Z,7.23
2019-05-29T23:00:33.884Z,7.22
2019-05-29T23:03:00.244Z,7.20
2019-05-29T23:05:26.973Z,7.17
2019-05-29T23:07:54.126Z,7.20
2019-05-29T23:10:20.513Z,7.20
2019-05-29T23:12:46.712Z,7.21
2019-05-29T23:15:13.225Z,7.20
2019-05-29T23:17:44.948Z,7.19
2019-05-29T23:20:11.381Z,7.19
2019-05-29T23:22:37.696Z,7.18
2019-05-29T23:25:04.696Z,7.16
2019-05-29T23:27:30.993Z,7.16
2019-05-29T23:29:57.298Z,7.16
2019-05-29T23:32:23.651Z,7.16
2019-05-29T23:34:50.070Z,7.18
2019-05-29T23:37:16.587Z,7.18
2019-05-29T23:39:42.876Z,7.16
2019-05-29T23:42:12.480Z,7.14
2019-05-29T23:44:38.975Z,7.11
2019-05-29T23:47:07.462Z,7.10
2019-05-29T23:49:34.086Z,7.10
2019-05-29T23:52:02.505Z,7.08
2019-05-29T23:54:28.799Z,7.08
2019-05-29T23:56:55.857Z,7.07
2019-05-29T23:59:22.404Z,7.08
